Time,TemperatureF,DewpointF,PressureIn,WindDirection,WindDirectionDegrees,WindSpeedMPH,WindSpeedGustMPH,Humidity,HourlyPrecipIn,Conditions,Clouds,dailyrainin,SoftwareType,DateUTC
2013-04-13 00:02:00,54.0,51.0,30.04,ENE,76,0.0,0.0,91,0.00,,,0.00,,2013-04-13 05:02:00,
2013-04-13 00:12:00,54.0,51.0,30.04,ENE,76,0.0,0.0,91,0.00,,,0.00,,2013-04-13 05:12:00,
2013-04-13 00:22:00,54.0,52.0,30.04,ENE,76,0.0,0.0,92,0.00,,,0.00,,2013-04-13 05:22:00,
2013-04-13 00:32:00,53.0,51.0,30.04,ENE,76,0.0,0.0,93,0.00,,,0.00,,2013-04-13 05:32:00,
2013-04-13 00:40:00,53.0,51.0,30.04,ENE,76,0.0,0.0,94,0.00,,,0.00,,2013-04-13 05:40:00,
2013-04-13 00:42:00,53.0,51.0,30.04,ENE,76,0.0,0.0,93,0.00,,,0.00,,2013-04-13 05:42:00,
2013-04-13 00:52:00,53.0,51.0,30.04,ENE,76,0.0,0.0,93,0.00,,,0.00,,2013-04-13 05:52:00,
2013-04-13 01:02:00,53.0,51.0,30.04,ENE,76,0.0,0.0,94,0.00,,,0.00,,2013-04-13 06:02:00,
2013-04-13 01:12:00,53.0,51.0,30.04,ENE,76,0.0,0.0,94,0.00,,,0.00,,2013-04-13 06:12:00,
2013-04-13 01:23:00,53.0,51.0,30.04,ENE,76,0.0,0.0,94,0.00,,,0.00,,2013-04-13 06:23:00,
2013-04-13 01:55:00,53.0,52.0,30.03,ENE,76,0.0,0.0,95,0.00,,,0.00,,2013-04-13 06:55:00,
2013-04-13 02:05:00,53.0,52.0,30.03,ENE,76,0.0,0.0,95,0.00,,,0.00,,2013-04-13 07:05:00,
2013-04-13 02:14:00,53.0,52.0,30.03,ENE,76,0.0,0.0,95,0.00,,,0.00,,2013-04-13 07:14:00,
2013-04-13 02:23:00,53.0,52.0,30.03,ENE,76,0.0,0.0,95,0.00,,,0.00,,2013-04-13 07:23:00,
2013-04-13 02:34:00,53.0,52.0,30.03,ENE,76,0.0,0.0,95,0.00,,,0.00,,2013-04-13 07:34:00,
2013-04-13 02:44:00,53.0,52.0,30.03,ENE,76,0.0,0.0,95,0.00,,,0.00,,2013-04-13 07:44:00,
2013-04-13 03:05:00,53.0,51.0,30.03,ENE,76,0.0,0.0,92,0.00,,,0.00,,2013-04-13 08:05:00,
2013-04-13 03:10:00,54.0,52.0,30.02,ENE,76,0.0,0.0,92,0.00,,,0.00,,2013-04-13 08:10:00,
2013-04-13 03:15:00,53.0,51.0,30.03,ENE,76,0.0,0.0,92,0.00,,,0.00,,2013-04-13 08:15:00,
2013-04-13 03:34:00,54.0,52.0,30.02,ENE,76,0.0,0.0,92,0.00,,,0.00,,2013-04-13 08:34:00,
2013-04-13 03:45:00,54.0,52.0,30.02,ENE,76,0.0,0.0,92,0.00,,,0.00,,2013-04-13 08:45:00,
2013-04-13 03:53:00,54.0,52.0,30.02,ENE,76,0.0,0.0,92,0.00,,,0.00,,2013-04-13 08:53:00,
2013-04-13 04:04:00,54.0,52.0,30.02,ENE,76,0.0,0.0,92,0.00,,,0.00,,2013-04-13 09:04:00,
2013-04-13 04:25:00,54.0,51.0,30.02,ENE,76,0.0,0.0,90,0.00,,,0.00,,2013-04-13 09:25:00,
2013-04-13 04:38:00,54.0,51.0,30.02,ENE,76,0.0,0.0,89,0.00,,,0.00,,2013-04-13 09:38:00,
2013-04-13 04:52:00,54.0,51.0,30.02,ENE,76,0.0,0.0,89,0.00,,,0.00,,2013-04-13 09:52:00,
2013-04-13 05:15:00,51.0,49.0,30.03,ENE,76,0.0,0.0,94,0.00,,,0.00,,2013-04-13 10:15:00,
2013-04-13 05:24:00,51.0,49.0,30.03,ENE,76,0.0,0.0,94,0.00,,,0.00,,2013-04-13 10:24:00,
2013-04-13 05:35:00,52.0,51.0,30.03,ENE,76,0.0,0.0,95,0.00,,,0.00,,2013-04-13 10:35:00,
2013-04-13 05:45:00,52.0,51.0,30.03,ENE,76,0.0,0.0,95,0.00,,,0.00,,2013-04-13 10:45:00,
2013-04-13 05:55:00,52.0,51.0,30.03,ENE,76,0.0,0.0,95,0.00,,,0.00,,2013-04-13 10:55:00,
2013-04-13 06:05:00,52.0,51.0,30.03,ENE,76,0.0,0.0,95,0.00,,,0.00,,2013-04-13 11:05:00,
2013-04-13 06:13:00,52.0,51.0,30.03,ENE,76,0.0,0.0,95,0.00,,,0.00,,2013-04-13 11:13:00,
2013-04-13 06:23:00,52.0,51.0,30.03,ENE,76,0.0,0.0,95,0.00,,,0.00,,2013-04-13 11:23:00,
2013-04-13 06:33:00,52.0,50.0,30.05,ENE,76,0.0,0.0,93,0.00,,,0.00,,2013-04-13 11:33:00,
2013-04-13 06:44:00,52.0,50.0,30.05,ENE,76,0.0,0.0,93,0.00,,,0.00,,2013-04-13 11:44:00,
2013-04-13 06:54:00,51.0,50.0,30.05,ENE,76,0.0,0.0,95,0.00,,,0.00,,2013-04-13 11:54:00,
2013-04-13 07:08:00,50.0,49.0,30.05,ENE,76,0.0,0.0,95,0.00,,,0.00,,2013-04-13 12:08:00,
2013-04-13 07:14:00,50.0,49.0,30.05,ENE,76,0.0,0.0,95,0.00,,,0.00,,2013-04-13 12:14:00,
2013-04-13 07:23:00,50.0,49.0,30.05,ENE,76,0.0,0.0,95,0.00,,,0.00,,2013-04-13 12:23:00,
2013-04-13 07:34:00,50.0,49.0,30.05,ENE,76,0.0,0.0,95,0.00,,,0.00,,2013-04-13 12:34:00,
2013-04-13 07:45:00,50.0,49.0,30.05,ENE,76,0.0,0.0,95,0.00,,,0.00,,2013-04-13 12:45:00,
2013-04-13 07:53:00,52.0,51.0,30.07,ENE,76,0.0,0.0,95,0.00,,,0.00,,2013-04-13 12:53:00,
2013-04-13 08:05:00,53.0,51.0,30.06,ENE,76,0.0,0.0,94,0.00,,,0.00,,2013-04-13 13:05:00,
2013-04-13 08:25:00,57.0,52.0,30.06,South,191,1.0,5.0,84,0.00,,,0.00,,2013-04-13 13:25:00,
2013-04-13 08:33:00,57.0,52.0,30.06,South,191,1.0,5.0,84,0.00,,,0.00,,2013-04-13 13:33:00,
2013-04-13 08:45:00,57.0,52.0,30.06,South,191,1.0,5.0,84,0.00,,,0.00,,2013-04-13 13:45:00,
2013-04-13 08:55:00,60.0,53.0,30.06,SSE,160,5.0,9.0,77,0.00,,,0.00,,2013-04-13 13:55:00,
2013-04-13 09:04:00,60.0,53.0,30.06,SSE,160,5.0,9.0,77,0.00,,,0.00,,2013-04-13 14:04:00,
2013-04-13 09:23:00,64.0,52.0,30.05,SE,145,6.0,10.0,64,0.00,,,0.00,,2013-04-13 14:23:00,
2013-04-13 09:35:00,64.0,52.0,30.05,SE,145,6.0,10.0,64,0.00,,,0.00,,2013-04-13 14:35:00,
2013-04-13 09:48:00,64.0,52.0,30.05,SE,145,6.0,10.0,64,0.00,,,0.00,,2013-04-13 14:48:00,
2013-04-13 09:59:00,65.0,53.0,30.04,ESE,116,3.0,7.0,64,0.00,,,0.00,,2013-04-13 14:59:00,
2013-04-13 10:04:00,68.0,53.0,30.03,SE,138,5.0,9.0,59,0.00,,,0.00,,2013-04-13 15:04:00,
2013-04-13 10:14:00,69.0,53.0,30.03,SE,143,6.0,10.0,56,0.00,,,0.00,,2013-04-13 15:14:00,
2013-04-13 10:28:00,69.0,53.0,30.03,SE,143,6.0,10.0,56,0.00,,,0.00,,2013-04-13 15:28:00,
2013-04-13 10:35:00,72.0,53.0,30.02,ESE,115,4.0,9.0,51,0.00,,,0.00,,2013-04-13 15:35:00,
2013-04-13 10:43:00,72.0,53.0,30.02,ESE,115,4.0,9.0,51,0.00,,,0.00,,2013-04-13 15:43:00,
2013-04-13 10:54:00,72.0,52.0,30.01,SSE,168,7.0,10.0,49,0.00,,,0.00,,2013-04-13 15:54:00,
2013-04-13 11:05:00,74.0,53.0,30.01,SSE,148,5.0,12.0,48,0.00,,,0.00,,2013-04-13 16:05:00,
2013-04-13 11:14:00,74.0,53.0,30.01,SSE,148,5.0,12.0,48,0.00,,,0.00,,2013-04-13 16:14:00,
2013-04-13 11:24:00,73.0,51.0,30.00,ESE,113,5.0,10.0,46,0.00,,,0.00,,2013-04-13 16:24:00,
2013-04-13 11:34:00,74.0,51.0,30.00,ESE,115,6.0,12.0,44,0.00,,,0.00,,2013-04-13 16:34:00,
2013-04-13 11:45:00,74.0,51.0,30.00,ESE,115,6.0,12.0,44,0.00,,,0.00,,2013-04-13 16:45:00,
2013-04-13 11:55:00,75.0,53.0,29.98,East,83,3.0,12.0,46,0.00,,,0.00,,2013-04-13 16:55:00,
2013-04-13 12:05:00,76.0,51.0,29.98,SE,135,5.0,14.0,42,0.00,,,0.00,,2013-04-13 17:05:00,
2013-04-13 12:20:00,76.0,51.0,29.98,SE,135,5.0,14.0,42,0.00,,,0.00,,2013-04-13 17:20:00,
2013-04-13 12:36:00,77.0,51.0,29.96,SE,141,3.0,13.0,41,0.00,,,0.00,,2013-04-13 17:36:00,
2013-04-13 12:43:00,77.0,51.0,29.96,SE,141,3.0,13.0,41,0.00,,,0.00,,2013-04-13 17:43:00,
2013-04-13 12:57:00,77.0,50.0,29.96,ESE,117,5.0,12.0,39,0.00,,,0.00,,2013-04-13 17:57:00,
2013-04-13 13:05:00,77.0,49.0,29.94,SE,145,4.0,14.0,38,0.00,,,0.00,,2013-04-13 18:05:00,
2013-04-13 13:14:00,77.0,49.0,29.94,SE,145,4.0,14.0,38,0.00,,,0.00,,2013-04-13 18:14:00,
2013-04-13 13:24:00,77.0,49.0,29.94,SE,145,4.0,14.0,38,0.00,,,0.00,,2013-04-13 18:24:00,
2013-04-13 13:32:00,78.0,50.0,29.92,South,176,5.0,14.0,37,0.00,,,0.00,,2013-04-13 18:32:00,
2013-04-13 13:42:00,78.0,50.0,29.92,South,176,5.0,14.0,37,0.00,,,0.00,,2013-04-13 18:42:00,
2013-04-13 13:52:00,79.0,50.0,29.91,SE,140,7.0,14.0,37,0.00,,,0.00,,2013-04-13 18:52:00,
2013-04-13 14:03:00,78.0,50.0,29.91,South,176,5.0,13.0,37,0.00,,,0.00,,2013-04-13 19:03:00,
2013-04-13 14:12:00,78.0,50.0,29.91,South,176,5.0,13.0,37,0.00,,,0.00,,2013-04-13 19:12:00,
2013-04-13 14:22:00,78.0,50.0,29.90,SSE,148,3.0,13.0,38,0.00,,,0.00,,2013-04-13 19:22:00,
2013-04-13 14:32:00,78.0,50.0,29.90,SSE,148,3.0,13.0,38,0.00,,,0.00,,2013-04-13 19:32:00,
2013-04-13 14:42:00,78.0,50.0,29.90,SSE,148,3.0,13.0,38,0.00,,,0.00,,2013-04-13 19:42:00,
2013-04-13 14:53:00,78.0,51.0,29.88,SSE,151,6.0,15.0,39,0.00,,,0.00,,2013-04-13 19:53:00,
2013-04-13 15:02:00,80.0,53.0,29.87,SSE,165,5.0,14.0,39,0.00,,,0.00,,2013-04-13 20:02:00,
2013-04-13 15:12:00,80.0,53.0,29.87,SSE,165,5.0,14.0,39,0.00,,,0.00,,2013-04-13 20:12:00,
2013-04-13 15:22:00,79.0,51.0,29.86,East,97,7.0,15.0,38,0.00,,,0.00,,2013-04-13 20:22:00,
2013-04-13 15:32:00,80.0,51.0,29.85,South,171,6.0,13.0,37,0.00,,,0.00,,2013-04-13 20:32:00,
2013-04-13 15:42:00,80.0,51.0,29.85,South,171,6.0,13.0,37,0.00,,,0.00,,2013-04-13 20:42:00,
2013-04-13 15:52:00,80.0,51.0,29.85,SSE,153,5.0,13.0,36,0.00,,,0.00,,2013-04-13 20:52:00,
2013-04-13 16:02:00,79.0,47.0,29.84,SSE,153,4.0,15.0,32,0.00,,,0.00,,2013-04-13 21:02:00,
2013-04-13 16:12:00,79.0,47.0,29.84,SSE,153,4.0,15.0,32,0.00,,,0.00,,2013-04-13 21:12:00,
2013-04-13 16:22:00,79.0,47.0,29.84,SSE,153,4.0,15.0,32,0.00,,,0.00,,2013-04-13 21:22:00,
2013-04-13 16:32:00,80.0,49.0,29.84,SE,139,5.0,14.0,34,0.00,,,0.00,,2013-04-13 21:32:00,
2013-04-13 16:43:00,80.0,49.0,29.84,SE,139,5.0,14.0,34,0.00,,,0.00,,2013-04-13 21:43:00,
2013-04-13 16:52:00,79.0,50.0,29.83,SSE,148,5.0,12.0,37,0.00,,,0.00,,2013-04-13 21:52:00,
2013-04-13 17:03:00,79.0,50.0,29.83,SSE,148,5.0,12.0,37,0.00,,,0.00,,2013-04-13 22:03:00,
2013-04-13 17:12:00,79.0,50.0,29.83,SSE,148,5.0,12.0,37,0.00,,,0.00,,2013-04-13 22:12:00,
2013-04-13 17:22:00,78.0,51.0,29.82,SSE,166,5.0,14.0,39,0.00,,,0.00,,2013-04-13 22:22:00,
2013-04-13 17:33:00,79.0,53.0,29.83,SE,139,5.0,14.0,40,0.00,,,0.00,,2013-04-13 22:33:00,
2013-04-13 17:42:00,79.0,53.0,29.83,SE,139,5.0,14.0,40,0.00,,,0.00,,2013-04-13 22:42:00,
2013-04-13 17:53:00,79.0,53.0,29.83,SE,139,5.0,14.0,40,0.00,,,0.00,,2013-04-13 22:53:00,
2013-04-13 18:02:00,77.0,53.0,29.82,SSE,148,5.0,8.0,44,0.00,,,0.00,,2013-04-13 23:02:00,
2013-04-13 18:12:00,77.0,53.0,29.82,SSE,148,5.0,8.0,44,0.00,,,0.00,,2013-04-13 23:12:00,
2013-04-13 18:22:00,77.0,53.0,29.82,SSE,148,5.0,8.0,44,0.00,,,0.00,,2013-04-13 23:22:00,
2013-04-13 18:32:00,77.0,55.0,29.82,ESE,121,3.0,9.0,46,0.00,,,0.00,,2013-04-13 23:32:00,
2013-04-13 18:41:00,77.0,55.0,29.82,ESE,121,3.0,9.0,46,0.00,,,0.00,,2013-04-13 23:41:00,
2013-04-13 18:53:00,77.0,55.0,29.82,ESE,121,3.0,9.0,46,0.00,,,0.00,,2013-04-13 23:53:00,
2013-04-13 19:02:00,75.0,55.0,29.82,SE,146,3.0,10.0,50,0.00,,,0.00,,2013-04-14 00:02:00,
2013-04-13 19:12:00,75.0,55.0,29.82,SE,146,3.0,10.0,50,0.00,,,0.00,,2013-04-14 00:12:00,
2013-04-13 19:22:00,74.0,55.0,29.83,ESE,114,0.0,7.0,52,0.00,,,0.00,,2013-04-14 00:22:00,
2013-04-13 19:32:00,74.0,55.0,29.83,ESE,114,0.0,7.0,52,0.00,,,0.00,,2013-04-14 00:32:00,
2013-04-13 19:42:00,74.0,55.0,29.83,ESE,114,0.0,7.0,52,0.00,,,0.00,,2013-04-14 00:42:00,
2013-04-13 19:52:00,72.0,55.0,29.84,SE,125,1.0,5.0,56,0.00,,,0.00,,2013-04-14 00:52:00,
2013-04-13 20:02:00,71.0,55.0,29.84,SE,134,0.0,3.0,57,0.00,,,0.00,,2013-04-14 01:02:00,
2013-04-13 20:12:00,71.0,55.0,29.84,SE,134,0.0,3.0,57,0.00,,,0.00,,2013-04-14 01:12:00,
2013-04-13 20:22:00,70.0,55.0,29.85,SE,137,0.0,2.0,58,0.00,,,0.00,,2013-04-14 01:22:00,
2013-04-13 20:32:00,70.0,55.0,29.85,SE,137,0.0,2.0,58,0.00,,,0.00,,2013-04-14 01:32:00,
2013-04-13 20:42:00,70.0,55.0,29.85,SE,137,0.0,2.0,58,0.00,,,0.00,,2013-04-14 01:42:00,
2013-04-13 20:53:00,68.0,54.0,29.87,SE,137,0.0,0.0,60,0.00,,,0.00,,2013-04-14 01:53:00,
2013-04-13 21:02:00,68.0,54.0,29.87,SE,137,0.0,0.0,60,0.00,,,0.00,,2013-04-14 02:02:00,
2013-04-13 21:12:00,69.0,54.0,29.88,SSE,159,4.0,7.0,58,0.00,,,0.00,,2013-04-14 02:12:00,
2013-04-13 21:22:00,69.0,54.0,29.88,SSE,159,4.0,7.0,58,0.00,,,0.00,,2013-04-14 02:22:00,
2013-04-13 21:32:00,69.0,54.0,29.88,South,176,0.0,7.0,59,0.00,,,0.00,,2013-04-14 02:32:00,
2013-04-13 21:43:00,69.0,54.0,29.88,South,176,0.0,7.0,59,0.00,,,0.00,,2013-04-14 02:43:00,
2013-04-13 21:53:00,69.0,55.0,29.88,SSE,155,3.0,7.0,62,0.00,,,0.00,,2013-04-14 02:53:00,
2013-04-13 22:02:00,69.0,56.0,29.88,SSE,149,2.0,6.0,64,0.00,,,0.00,,2013-04-14 03:02:00,
2013-04-13 22:12:00,69.0,56.0,29.88,SSE,149,2.0,6.0,64,0.00,,,0.00,,2013-04-14 03:12:00,
2013-04-13 22:22:00,69.0,56.0,29.88,SSE,149,2.0,6.0,64,0.00,,,0.00,,2013-04-14 03:22:00,
2013-04-13 22:33:00,68.0,56.0,29.88,SSE,150,1.0,6.0,66,0.00,,,0.00,,2013-04-14 03:33:00,
2013-04-13 22:42:00,68.0,56.0,29.88,SSE,150,1.0,6.0,66,0.00,,,0.00,,2013-04-14 03:42:00,
2013-04-13 22:53:00,68.0,56.0,29.88,SSE,150,1.0,6.0,66,0.00,,,0.00,,2013-04-14 03:53:00,
2013-04-13 23:02:00,67.0,57.0,29.88,SSE,160,2.0,5.0,71,0.00,,,0.00,,2013-04-14 04:02:00,
2013-04-13 23:12:00,67.0,57.0,29.88,SSE,160,2.0,5.0,71,0.00,,,0.00,,2013-04-14 04:12:00,
2013-04-13 23:23:00,66.0,56.0,29.88,SSE,156,2.0,6.0,71,0.00,,,0.00,,2013-04-14 04:23:00,
2013-04-13 23:32:00,66.0,56.0,29.88,SSE,156,2.0,6.0,71,0.00,,,0.00,,2013-04-14 04:32:00,
2013-04-13 23:40:00,66.0,57.0,29.87,SSE,156,5.0,8.0,72,0.00,,,0.00,,2013-04-14 04:40:00,
2013-04-13 23:42:00,66.0,56.0,29.88,SSE,156,2.0,6.0,71,0.00,,,0.00,,2013-04-14 04:42:00,
2013-04-13 23:52:00,67.0,58.0,29.86,ESE,123,0.0,3.0,72,0.00,,,0.00,,2013-04-14 04:52:00,